Time;durP1;ratioP1;P1;durP2;ratioP2;P2;SDS_P1;SDS_P2;PMS_P1;PMS_P2;Temp;Humidity;BMP_temperature;BMP_pressure;BME280_temperature;BME280_humidity;BME280_pressure;Samples;Min_cycle;Max_cycle;Signal;HPM_P1;HPM_P2
2021/06/13 00:01:38;;;;;;;0.45;0.10;;;22.70;58.50;;;;;;4988723;28;20027;-86
2021/06/13 00:04:04;;;;;;;0.17;0.10;;;22.70;58.50;;;;;;4972567;28;20037;-86
2021/06/13 00:06:30;;;;;;;0.82;0.00;;;22.70;58.60;;;;;;4953454;28;20059;-85
2021/06/13 00:08:57;;;;;;;1.55;0.13;;;22.60;58.70;;;;;;4962909;28;20026;-86
2021/06/13 00:11:23;;;;;;;1.45;0.47;;;22.60;58.70;;;;;;4972692;28;20037;-86
2021/06/13 00:13:49;;;;;;;0.30;0.20;;;22.60;58.80;;;;;;4972630;28;20369;-85
2021/06/13 00:16:16;;;;;;;2.85;0.10;;;22.50;58.80;;;;;;4987475;28;20035;-83
2021/06/13 00:18:42;;;;;;;0.20;0.10;;;22.50;58.90;;;;;;4972513;28;20038;-86
2021/06/13 00:21:09;;;;;;;1.10;0.22;;;22.50;58.90;;;;;;4956626;28;20058;-86
2021/06/13 00:23:37;;;;;;;0.10;0.00;;;22.50;58.80;;;;;;4972476;28;20031;-86
2021/06/13 00:26:03;;;;;;;0.30;0.10;;;22.50;58.90;;;;;;4972407;28;20046;-86
2021/06/13 00:28:29;;;;;;;0.30;0.10;;;22.50;58.90;;;;;;4989000;28;20039;-85
2021/06/13 00:30:55;;;;;;;1.50;0.20;;;22.40;59.00;;;;;;4979723;28;20034;-83
2021/06/13 00:33:21;;;;;;;0.75;0.10;;;22.40;59.10;;;;;;4982823;28;20472;-86
2021/06/13 00:35:47;;;;;;;0.45;0.10;;;22.40;59.20;;;;;;4976599;28;20034;-86
2021/06/13 00:38:14;;;;;;;0.40;0.03;;;22.30;59.20;;;;;;4958015;28;20022;-85
2021/06/13 00:40:40;;;;;;;0.70;0.20;;;22.30;59.20;;;;;;4993399;28;20031;-85
2021/06/13 00:43:06;;;;;;;0.40;0.20;;;22.30;59.20;;;;;;4977554;28;20034;-84
2021/06/13 00:45:32;;;;;;;0.03;0.00;;;22.30;59.30;;;;;;4975490;28;20043;-86
2021/06/13 00:47:59;;;;;;;0.75;0.22;;;22.20;59.30;;;;;;4956089;28;20050;-84
2021/06/13 00:50:53;;;;;;;0.47;0.10;;;22.20;59.50;;;;;;4972161;28;20510;-86
2021/06/13 00:53:20;;;;;;;0.20;0.10;;;22.10;59.60;;;;;;4958590;28;20043;-86
2021/06/13 00:55:47;;;;;;;1.02;0.30;;;22.00;59.70;;;;;;4972390;28;20026;-85
2021/06/13 00:58:13;;;;;;;0.47;0.17;;;22.00;59.80;;;;;;4973372;28;20033;-86
2021/06/13 01:00:39;;;;;;;0.32;0.13;;;22.00;60.00;;;;;;4960261;28;20054;-86
2021/06/13 01:03:06;;;;;;;0.30;0.20;;;21.90;60.00;;;;;;4984753;28;20029;-85
2021/06/13 01:05:32;;;;;;;0.63;0.20;;;21.90;60.10;;;;;;4973956;28;20054;-86
2021/06/13 01:08:17;;;;;;;0.40;0.13;;;21.90;60.30;;;;;;4973927;28;20030;-87
2021/06/13 01:10:54;;;;;;;0.15;0.08;;;21.80;60.40;;;;;;4989009;28;20030;-85
2021/06/13 01:13:35;;;;;;;0.20;0.10;;;21.80;60.40;;;;;;4976865;28;20042;-86
2021/06/13 01:16:31;;;;;;;;;;;21.70;60.50;;;;;;4976206;28;20031;-85
2021/06/13 01:19:10;;;;;;;0.55;0.20;;;21.70;60.80;;;;;;4974501;28;19917;-84
2021/06/13 01:21:49;;;;;;;3.03;0.47;;;21.70;61.00;;;;;;4956541;28;20489;-86
2021/06/13 01:24:46;;;;;;;0.82;0.25;;;21.60;61.10;;;;;;4955760;28;20034;-86
2021/06/13 01:27:35;;;;;;;1.75;0.28;;;21.60;61.20;;;;;;4972880;28;20238;-86
2021/06/13 01:30:07;;;;;;;0.57;0.25;;;21.50;61.20;;;;;;4975424;28;20381;-86
2021/06/13 01:32:33;;;;;;;0.20;0.10;;;21.50;61.30;;;;;;5006040;28;20066;-85
2021/06/13 01:35:06;;;;;;;0.35;0.15;;;21.50;62.10;;;;;;4977265;28;20039;-86
2021/06/13 01:37:34;;;;;;;0.88;0.10;;;21.50;61.30;;;;;;5011381;28;20037;-86
2021/06/13 01:40:06;;;;;;;0.47;0.13;;;21.50;61.50;;;;;;4979686;28;20050;-86
2021/06/13 01:42:33;;;;;;;0.73;0.22;;;21.50;61.50;;;;;;4979263;28;20407;-85
2021/06/13 01:45:00;;;;;;;0.35;0.10;;;21.40;61.60;;;;;;4979242;28;20034;-86
2021/06/13 01:47:26;;;;;;;1.50;0.20;;;21.40;61.70;;;;;;4974746;28;20381;-84
2021/06/13 01:49:53;;;;;;;5.25;0.28;;;21.40;61.60;;;;;;4975391;28;20042;-85
2021/06/13 01:52:19;;;;;;;0.45;0.10;;;21.40;61.70;;;;;;4991493;28;20490;-85
2021/06/13 01:54:45;;;;;;;0.70;0.38;;;21.40;61.90;;;;;;4991325;28;20030;-86
2021/06/13 01:57:11;;;;;;;2.28;0.88;;;21.30;61.90;;;;;;4974826;28;20042;-85
2021/06/13 01:59:40;;;;;;;0.20;0.10;;;21.30;61.90;;;;;;4974855;28;20071;-86
2021/06/13 02:02:06;;;;;;;1.65;0.63;;;21.30;61.90;;;;;;4956246;28;20070;-86
2021/06/13 02:04:32;;;;;;;0.30;0.08;;;21.30;61.90;;;;;;4967577;28;20278;-86
2021/06/13 02:06:59;;;;;;;0.45;0.20;;;21.30;61.90;;;;;;5003480;28;20031;-85
2021/06/13 02:09:25;;;;;;;0.50;0.10;;;21.30;61.90;;;;;;4972934;28;20023;-85
2021/06/13 02:11:54;;;;;;;0.32;0.10;;;21.30;61.90;;;;;;4972408;28;20030;-85
2021/06/13 02:14:20;;;;;;;0.55;0.10;;;21.30;62.00;;;;;;4970463;28;20054;-85
2021/06/13 02:16:46;;;;;;;0.50;0.10;;;21.20;62.00;;;;;;4988772;28;20037;-83
2021/06/13 02:19:15;;;;;;;0.52;0.10;;;21.20;62.10;;;;;;4972822;28;20051;-84
2021/06/13 02:21:42;;;;;;;0.77;0.28;;;21.10;62.10;;;;;;4985899;28;20019;-86
2021/06/13 02:24:09;;;;;;;0.13;0.00;;;21.10;62.20;;;;;;4961825;28;20487;-86
2021/06/13 02:26:36;;;;;;;1.45;0.52;;;21.10;62.30;;;;;;4969608;28;20050;-86
2021/06/13 02:29:02;;;;;;;0.38;0.10;;;21.10;62.30;;;;;;5003936;28;20499;-86
2021/06/13 02:31:29;;;;;;;0.73;0.30;;;21.10;62.20;;;;;;4971237;28;20042;-81
2021/06/13 02:33:57;;;;;;;0.30;0.10;;;21.10;62.20;;;;;;4969465;28;20019;-84
2021/06/13 02:36:24;;;;;;;0.13;0.10;;;21.10;62.20;;;;;;4984392;28;20031;-86
2021/06/13 02:38:54;;;;;;;0.40;0.20;;;21.10;62.20;;;;;;4992892;28;20046;-81
2021/06/13 02:41:20;;;;;;;2.65;0.75;;;21.10;62.20;;;;;;4973707;28;20030;-86
2021/06/13 02:43:46;;;;;;;4.07;0.30;;;21.10;63.00;;;;;;4974678;28;20124;-84
2021/06/13 02:46:12;;;;;;;0.45;0.10;;;21.00;62.20;;;;;;4984460;28;20046;-85
2021/06/13 02:48:39;;;;;;;1.27;0.40;;;21.00;62.30;;;;;;4982596;28;20030;-85
2021/06/13 02:51:05;;;;;;;0.50;0.10;;;21.00;62.40;;;;;;4979752;28;20392;-86
2021/06/13 02:53:43;;;;;;;0.75;0.20;;;20.90;62.50;;;;;;4976039;28;20023;-85
2021/06/13 02:56:13;;;;;;;1.13;0.55;;;20.90;62.70;;;;;;4974276;28;20045;-85
2021/06/13 02:58:41;;;;;;;1.02;0.28;;;20.80;63.40;;;;;;5011227;28;20019;-85
2021/06/13 03:01:12;;;;;;;1.35;0.45;;;20.80;62.60;;;;;;4994111;28;20043;-85
2021/06/13 03:03:38;;;;;;;0.57;0.10;;;20.80;62.70;;;;;;4973699;28;20477;-85
2021/06/13 03:06:11;;;;;;;0.20;0.10;;;20.80;62.80;;;;;;4973612;28;20042;-86
2021/06/13 03:08:37;;;;;;;0.25;0.10;;;20.80;62.80;;;;;;4975065;28;20027;-85
2021/06/13 03:11:03;;;;;;;0.57;0.10;;;20.70;62.80;;;;;;4973315;28;20054;-85
2021/06/13 03:13:29;;;;;;;1.65;0.10;;;20.70;63.00;;;;;;4955115;28;20469;-84
2021/06/13 03:15:55;;;;;;;1.55;0.13;;;20.70;63.00;;;;;;4971107;28;20488;-86
2021/06/13 03:18:21;;;;;;;0.47;0.13;;;20.70;63.10;;;;;;4973534;28;20019;-85
2021/06/13 03:20:48;;;;;;;0.52;0.25;;;20.60;63.20;;;;;;4973474;28;20499;-85
2021/06/13 03:23:14;;;;;;;0.38;0.22;;;20.60;63.30;;;;;;4958278;28;20388;-85
2021/06/13 03:25:40;;;;;;;1.05;0.28;;;20.60;63.40;;;;;;4989662;28;20031;-85
2021/06/13 03:28:06;;;;;;;0.55;0.00;;;20.50;63.40;;;;;;4973316;28;20503;-85
2021/06/13 03:30:34;;;;;;;0.30;0.08;;;20.50;63.40;;;;;;4953734;28;20050;-85
2021/06/13 03:33:01;;;;;;;0.35;0.20;;;20.50;63.50;;;;;;4963848;28;20354;-86
2021/06/13 03:35:27;;;;;;;0.43;0.20;;;20.40;63.50;;;;;;4973365;28;20045;-84
2021/06/13 03:37:53;;;;;;;0.93;0.20;;;20.40;63.50;;;;;;4973452;28;20038;-84
2021/06/13 03:40:19;;;;;;;0.10;0.00;;;20.40;63.60;;;;;;4973358;28;20034;-85
2021/06/13 03:42:45;;;;;;;0.38;0.00;;;20.40;63.70;;;;;;4973189;28;20038;-86
2021/06/13 03:45:12;;;;;;;0.68;0.10;;;20.40;63.80;;;;;;4973407;28;20043;-85
2021/06/13 03:47:38;;;;;;;2.30;0.45;;;20.30;63.80;;;;;;4988484;28;20034;-85
2021/06/13 03:50:05;;;;;;;0.88;0.15;;;20.30;64.00;;;;;;4974173;28;20476;-84
2021/06/13 03:52:31;;;;;;;0.13;0.10;;;20.20;64.10;;;;;;5008991;28;20035;-85
2021/06/13 03:54:58;;;;;;;0.63;0.20;;;20.20;64.20;;;;;;4992895;28;20030;-84
2021/06/13 03:57:24;;;;;;;0.30;0.15;;;20.10;64.20;;;;;;5009642;28;20091;-86
2021/06/13 03:59:50;;;;;;;0.70;0.20;;;20.10;64.30;;;;;;4993138;28;20503;-85
2021/06/13 04:02:16;;;;;;;0.28;0.13;;;20.10;64.40;;;;;;4972339;28;20495;-84
2021/06/13 04:04:44;;;;;;;0.32;0.10;;;20.00;64.40;;;;;;4985371;28;20022;-85
2021/06/13 04:07:10;;;;;;;0.98;0.28;;;20.00;64.40;;;;;;4972495;28;20046;-84
2021/06/13 04:09:39;;;;;;;0.28;0.00;;;20.00;64.40;;;;;;4972234;28;20404;-86
2021/06/13 04:12:06;;;;;;;1.75;0.40;;;20.00;64.40;;;;;;4972575;28;20038;-86
2021/06/13 04:14:32;;;;;;;0.77;0.35;;;20.00;64.50;;;;;;4972549;28;20027;-85
2021/06/13 04:16:58;;;;;;;0.63;0.17;;;20.00;64.50;;;;;;4986001;28;20041;-86
2021/06/13 04:19:24;;;;;;;0.63;0.20;;;20.00;64.70;;;;;;4993429;28;20384;-86
2021/06/13 04:21:51;;;;;;;0.50;0.15;;;19.90;64.80;;;;;;4992479;28;20027;-86
2021/06/13 04:24:19;;;;;;;0.28;0.10;;;19.80;64.90;;;;;;5008849;28;20476;-86
2021/06/13 04:26:45;;;;;;;1.05;0.10;;;19.80;65.10;;;;;;5008080;28;20043;-86
2021/06/13 04:29:12;;;;;;;0.55;0.20;;;19.70;65.20;;;;;;4972578;28;20026;-86
2021/06/13 04:31:38;;;;;;;1.27;0.10;;;19.60;65.30;;;;;;4977696;28;20038;-85
2021/06/13 04:34:04;;;;;;;0.17;0.08;;;19.60;65.40;;;;;;4973260;28;20381;-84
2021/06/13 04:36:30;;;;;;;0.63;0.30;;;19.60;65.60;;;;;;4971658;28;20043;-86
2021/06/13 04:38:56;;;;;;;0.20;0.15;;;19.60;65.60;;;;;;4956389;28;20050;-83
2021/06/13 04:41:23;;;;;;;0.28;0.17;;;19.60;65.70;;;;;;4973453;28;20037;-85
2021/06/13 04:43:49;;;;;;;0.22;0.00;;;19.60;65.80;;;;;;4972210;28;20480;-82
2021/06/13 04:46:21;;;;;;;0.65;0.10;;;19.50;65.90;;;;;;4971807;28;20047;-85
2021/06/13 04:48:47;;;;;;;1.08;0.73;;;19.50;66.10;;;;;;4972169;28;20388;-85
2021/06/13 04:51:13;;;;;;;5.00;0.68;;;19.50;66.30;;;;;;4972811;28;20034;-85
2021/06/13 04:53:54;;;;;;;0.17;0.00;;;19.60;66.30;;;;;;4972069;28;20027;-84
2021/06/13 04:56:33;;;;;;;1.75;0.20;;;19.60;66.20;;;;;;4957450;28;20035;-84
2021/06/13 04:59:00;;;;;;;1.08;0.40;;;19.60;66.20;;;;;;4973209;28;20037;-84
2021/06/13 05:01:26;;;;;;;0.20;0.10;;;19.60;66.10;;;;;;4969933;28;20058;-85
2021/06/13 05:03:53;;;;;;;1.55;0.35;;;19.70;66.00;;;;;;4974609;28;20042;-85
2021/06/13 05:06:19;;;;;;;0.28;0.08;;;19.90;65.90;;;;;;4975413;28;20081;-83
2021/06/13 05:08:46;;;;;;;0.20;0.10;;;20.00;65.70;;;;;;4976102;28;20025;-85
2021/06/13 05:11:12;;;;;;;1.38;0.10;;;20.20;65.50;;;;;;4975860;28;20027;-85
2021/06/13 05:13:38;;;;;;;2.03;0.45;;;20.30;65.20;;;;;;4977466;28;20027;-85
2021/06/13 05:16:04;;;;;;;0.85;0.13;;;20.40;64.80;;;;;;4966492;28;20038;-85
2021/06/13 05:18:30;;;;;;;0.30;0.20;;;20.60;64.70;;;;;;4969407;28;20038;-83
2021/06/13 05:20:57;;;;;;;0.52;0.20;;;20.70;64.30;;;;;;4979714;28;20026;-85
2021/06/13 05:23:23;;;;;;;0.40;0.20;;;20.90;64.00;;;;;;4959550;28;20443;-85
2021/06/13 05:25:50;;;;;;;0.57;0.10;;;21.00;63.70;;;;;;4978974;28;20043;-84
2021/06/13 05:28:17;;;;;;;0.30;0.05;;;21.10;63.50;;;;;;5012923;28;20027;-84
2021/06/13 05:30:43;;;;;;;0.43;0.08;;;21.30;63.20;;;;;;4995577;28;20049;-85
2021/06/13 05:33:09;;;;;;;0.55;0.10;;;21.40;63.00;;;;;;4976579;28;20034;-85
2021/06/13 05:35:36;;;;;;;0.57;0.10;;;21.40;62.80;;;;;;4958718;28;20050;-85
2021/06/13 05:38:02;;;;;;;3.22;0.43;;;21.50;62.80;;;;;;4975464;28;20380;-85
2021/06/13 05:40:29;;;;;;;0.28;0.20;;;21.60;62.70;;;;;;4956994;28;20043;-85
2021/06/13 05:42:55;;;;;;;0.68;0.30;;;21.60;62.50;;;;;;4974253;28;20479;-85
2021/06/13 05:45:23;;;;;;;0.73;0.20;;;21.70;62.40;;;;;;4977452;28;20534;-85
2021/06/13 05:47:49;;;;;;;0.43;0.13;;;21.70;62.30;;;;;;4990446;28;20110;-85
2021/06/13 05:50:15;;;;;;;0.68;0.28;;;21.80;62.10;;;;;;4958935;28;20034;-84
2021/06/13 05:52:41;;;;;;;0.75;0.30;;;21.90;62.70;;;;;;4976782;28;20051;-85
2021/06/13 05:55:08;;;;;;;0.63;0.20;;;21.90;61.70;;;;;;4980143;28;20031;-85
2021/06/13 05:57:34;;;;;;;0.57;0.10;;;22.00;61.70;;;;;;4978685;28;20403;-85
2021/06/13 06:00:08;;;;;;;0.50;0.20;;;22.00;61.40;;;;;;4979295;28;20041;-85
2021/06/13 06:02:35;;;;;;;0.80;0.22;;;22.10;61.20;;;;;;4954897;28;20043;-85
2021/06/13 06:05:01;;;;;;;1.08;0.20;;;22.20;61.10;;;;;;4955319;29;20047;-84
2021/06/13 06:07:27;;;;;;;1.15;0.20;;;22.30;60.90;;;;;;4957252;29;20046;-84
2021/06/13 06:09:53;;;;;;;1.10;0.40;;;22.40;60.70;;;;;;4956783;28;20038;-84
2021/06/13 06:12:19;;;;;;;1.55;0.40;;;22.40;60.50;;;;;;4955426;28;20046;-84
2021/06/13 06:14:46;;;;;;;0.85;0.17;;;22.40;60.50;;;;;;4954567;28;20043;-85
2021/06/13 06:17:12;;;;;;;0.30;0.00;;;22.50;60.60;;;;;;4987323;28;20039;-84
2021/06/13 06:19:39;;;;;;;0.55;0.20;;;22.60;60.30;;;;;;4995252;28;20022;-85
2021/06/13 06:22:05;;;;;;;1.05;0.22;;;22.60;60.00;;;;;;4994861;28;20043;-85
2021/06/13 06:24:32;;;;;;;2.40;0.43;;;22.60;59.90;;;;;;4994997;28;20054;-85
2021/06/13 06:26:58;;;;;;;0.60;0.32;;;22.70;60.00;;;;;;5011213;28;20038;-84
2021/06/13 06:29:24;;;;;;;0.47;0.28;;;22.80;59.80;;;;;;4976782;28;20023;-85
2021/06/13 06:31:50;;;;;;;0.22;0.17;;;22.90;59.70;;;;;;4977288;28;20050;-85
2021/06/13 06:34:16;;;;;;;0.50;0.20;;;22.90;59.50;;;;;;4974418;28;20030;-85
2021/06/13 06:36:43;;;;;;;2.20;0.35;;;23.00;59.40;;;;;;4975534;28;20035;-85
2021/06/13 06:39:09;;;;;;;0.20;0.00;;;23.00;59.30;;;;;;4975619;28;20027;-85
2021/06/13 06:41:36;;;;;;;0.20;0.10;;;23.10;59.20;;;;;;4974399;28;20400;-85
2021/06/13 06:44:04;;;;;;;0.85;0.28;;;23.10;59.10;;;;;;4974288;28;20034;-85
2021/06/13 06:46:30;;;;;;;1.25;0.20;;;23.30;58.90;;;;;;4985809;28;20507;-85
2021/06/13 06:48:57;;;;;;;0.73;0.13;;;23.50;58.50;;;;;;4980120;28;20031;-85
2021/06/13 06:51:23;;;;;;;0.75;0.28;;;23.60;58.20;;;;;;4979644;28;20029;-85
2021/06/13 06:53:49;;;;;;;0.52;0.00;;;23.70;58.00;;;;;;4978352;28;20018;-84
2021/06/13 06:56:15;;;;;;;0.20;0.10;;;23.80;57.90;;;;;;4974009;28;20079;-85
2021/06/13 06:58:41;;;;;;;0.47;0.17;;;23.80;57.80;;;;;;4980058;28;20038;-85
2021/06/13 07:01:07;;;;;;;1.27;0.10;;;23.80;57.70;;;;;;4958308;28;20055;-85
2021/06/13 07:03:34;;;;;;;1.65;0.20;;;23.80;57.60;;;;;;4969614;28;20026;-85
2021/06/13 07:06:00;;;;;;;0.40;0.15;;;23.90;57.60;;;;;;4974007;28;20069;-85
2021/06/13 07:08:26;;;;;;;1.10;0.20;;;24.00;57.50;;;;;;4975090;28;20030;-86
2021/06/13 07:10:52;;;;;;;2.60;0.20;;;24.10;57.30;;;;;;4973978;28;20031;-85
2021/06/13 07:13:18;;;;;;;0.52;0.10;;;24.10;57.20;;;;;;4974268;28;20035;-85
2021/06/13 07:15:45;;;;;;;2.00;0.00;;;24.20;57.00;;;;;;4979655;28;20106;-85
2021/06/13 07:18:11;;;;;;;0.63;0.00;;;24.30;56.80;;;;;;4986105;28;20034;-83
2021/06/13 07:20:37;;;;;;;1.27;0.25;;;24.30;56.80;;;;;;4976329;28;20045;-84
2021/06/13 07:23:03;;;;;;;0.95;0.20;;;24.40;56.80;;;;;;4976105;28;20476;-86
2021/06/13 07:25:29;;;;;;;0.50;0.20;;;24.40;56.70;;;;;;4994464;28;20058;-85
2021/06/13 07:27:55;;;;;;;0.50;0.10;;;24.60;56.50;;;;;;5010133;28;20522;-86
2021/06/13 07:30:22;;;;;;;0.52;0.30;;;24.70;56.20;;;;;;4993163;28;20379;-85
2021/06/13 07:32:48;;;;;;;1.20;0.30;;;24.70;56.10;;;;;;4974554;28;20027;-85
2021/06/13 07:35:14;;;;;;;0.80;0.30;;;24.70;56.10;;;;;;4957523;28;20499;-85
2021/06/13 07:37:44;;;;;;;0.30;0.10;;;24.80;56.10;;;;;;4989962;28;20398;-86
2021/06/13 07:40:10;;;;;;;0.70;0.05;;;24.90;55.90;;;;;;4989148;28;20031;-85
2021/06/13 07:42:36;;;;;;;0.20;0.00;;;25.10;55.60;;;;;;4973148;28;20038;-85
2021/06/13 07:45:04;;;;;;;0.28;0.10;;;25.20;55.30;;;;;;4988346;28;20045;-81
2021/06/13 07:47:31;;;;;;;0.70;0.30;;;25.30;55.40;;;;;;4970876;28;20066;-84
2021/06/13 07:49:58;;;;;;;0.98;0.20;;;25.30;55.10;;;;;;4976716;28;20027;-85
2021/06/13 07:52:27;;;;;;;0.35;0.10;;;25.40;55.10;;;;;;4993444;28;20034;-86
2021/06/13 07:54:53;;;;;;;0.20;0.10;;;25.50;54.90;;;;;;4993155;28;20039;-84
2021/06/13 07:57:19;;;;;;;0.50;0.22;;;25.60;54.80;;;;;;5009561;28;20030;-86
2021/06/13 07:59:46;;;;;;;0.38;0.10;;;25.80;54.60;;;;;;5008895;28;20022;-86
2021/06/13 08:02:12;;;;;;;0.15;0.00;;;25.90;54.30;;;;;;4972458;28;20046;-86
2021/06/13 08:04:43;;;;;;;0.10;0.00;;;26.00;54.20;;;;;;4989540;28;20026;-85
2021/06/13 08:07:09;;;;;;;1.00;0.20;;;25.90;54.10;;;;;;4972619;28;20042;-85
2021/06/13 08:09:35;;;;;;;0.10;0.10;;;25.90;54.00;;;;;;4973834;28;20039;-86
2021/06/13 08:12:01;;;;;;;0.93;0.20;;;26.00;54.00;;;;;;4972559;28;20030;-86
2021/06/13 08:14:27;;;;;;;0.75;0.30;;;26.00;53.90;;;;;;4972223;28;20035;-86
2021/06/13 08:16:53;;;;;;;0.32;0.10;;;25.90;53.90;;;;;;4986270;28;20026;-85
2021/06/13 08:19:19;;;;;;;1.77;0.20;;;26.00;53.90;;;;;;5010095;28;20031;-86
2021/06/13 08:21:46;;;;;;;0.63;0.08;;;26.10;53.80;;;;;;4977825;28;20035;-86
2021/06/13 08:24:12;;;;;;;0.20;0.10;;;26.30;53.60;;;;;;4976535;28;20035;-86
2021/06/13 08:26:38;;;;;;;0.20;0.10;;;26.30;53.40;;;;;;4975245;28;20034;-85
2021/06/13 08:29:04;;;;;;;0.30;0.10;;;26.40;53.20;;;;;;4973322;28;20027;-86
2021/06/13 08:31:30;;;;;;;0.00;0.00;;;26.50;53.10;;;;;;4976791;28;20507;-86
2021/06/13 08:33:57;;;;;;;0.30;0.08;;;26.60;53.00;;;;;;4955068;28;20054;-86
2021/06/13 08:36:23;;;;;;;0.95;0.43;;;26.80;52.90;;;;;;4972193;28;20077;-87
2021/06/13 08:38:52;;;;;;;0.50;0.20;;;27.00;52.60;;;;;;4971866;28;20038;-85
2021/06/13 08:41:18;;;;;;;0.40;0.20;;;27.10;52.50;;;;;;4972256;28;20046;-86
2021/06/13 08:43:48;;;;;;;0.25;0.10;;;27.20;52.20;;;;;;4972541;28;20376;-86
2021/06/13 08:46:14;;;;;;;0.55;0.00;;;27.30;52.10;;;;;;4987661;28;20539;-86
2021/06/13 08:48:41;;;;;;;0.50;0.10;;;27.40;51.90;;;;;;4988312;28;20027;-86
2021/06/13 08:51:08;;;;;;;0.90;0.20;;;27.40;51.70;;;;;;4988225;28;20560;-86
2021/06/13 08:53:34;;;;;;;0.38;0.10;;;27.50;51.70;;;;;;4972105;28;20034;-83
2021/06/13 08:56:00;;;;;;;0.88;0.10;;;27.60;51.60;;;;;;4973359;28;20035;-85
2021/06/13 08:58:26;;;;;;;1.25;0.50;;;27.70;51.30;;;;;;4973257;28;20030;-86
2021/06/13 09:00:52;;;;;;;0.03;0.00;;;27.70;51.30;;;;;;4978489;28;20038;-86
2021/06/13 09:03:19;;;;;;;0.52;0.20;;;27.80;51.10;;;;;;4983318;28;20027;-85
2021/06/13 09:05:45;;;;;;;0.28;0.20;;;27.90;51.00;;;;;;4976828;28;20240;-86
2021/06/13 09:08:12;;;;;;;0.20;0.10;;;28.00;50.90;;;;;;4956374;28;20046;-84
2021/06/13 09:10:40;;;;;;;1.42;0.32;;;28.00;50.80;;;;;;5009098;28;20026;-86
2021/06/13 09:13:09;;;;;;;0.75;0.35;;;28.10;50.80;;;;;;4991813;28;20030;-86
2021/06/13 09:15:39;;;;;;;0.43;0.08;;;28.20;50.60;;;;;;4976977;28;20547;-87
2021/06/13 09:18:08;;;;;;;0.55;0.22;;;28.20;50.40;;;;;;4972010;28;20035;-87
2021/06/13 09:20:34;;;;;;;0.00;0.00;;;28.40;50.30;;;;;;4971843;28;20039;-86
2021/06/13 09:23:06;;;;;;;0.20;0.00;;;28.50;50.20;;;;;;4973022;28;20035;-86
2021/06/13 09:25:33;;;;;;;0.10;0.00;;;28.70;49.90;;;;;;4986844;28;20038;-87
2021/06/13 09:28:21;;;;;;;1.33;0.50;;;28.80;49.70;;;;;;4987184;28;20045;-87
2021/06/13 09:30:51;;;;;;;0.55;0.13;;;28.90;49.50;;;;;;4986581;28;20043;-85
2021/06/13 09:33:30;;;;;;;0.30;0.00;;;28.90;49.40;;;;;;4987557;28;20019;-87
2021/06/13 09:35:57;;;;;;;0.35;0.10;;;28.80;49.20;;;;;;4972632;28;20026;-87
2021/06/13 09:38:24;;;;;;;0.50;0.20;;;28.80;49.30;;;;;;4971636;28;20053;-87
2021/06/13 09:41:01;;;;;;;0.30;0.05;;;28.90;49.40;;;;;;4972661;28;20383;-86
2021/06/13 09:43:32;;;;;;;0.32;0.10;;;29.00;49.20;;;;;;4988245;28;20030;-86
2021/06/13 09:46:07;;;;;;;0.80;0.22;;;29.20;48.90;;;;;;4971023;28;20527;-86
2021/06/13 09:48:36;;;;;;;0.22;0.03;;;29.30;48.80;;;;;;4988078;28;20392;-86
2021/06/13 09:51:06;;;;;;;0.30;0.15;;;29.50;48.60;;;;;;4975174;28;20018;-85
2021/06/13 09:53:38;;;;;;;0.60;0.30;;;29.50;48.40;;;;;;4975082;28;20384;-86
2021/06/13 09:56:12;;;;;;;0.38;0.05;;;29.40;48.00;;;;;;4959114;28;20392;-85
2021/06/13 09:58:52;;;;;;;0.22;0.17;;;29.30;48.20;;;;;;4976818;28;20053;-87
2021/06/13 10:01:19;;;;;;;1.80;0.20;;;29.40;48.00;;;;;;4975317;28;20045;-86
2021/06/13 10:03:48;;;;;;;1.27;0.32;;;29.40;47.70;;;;;;4990969;28;20038;-87
2021/06/13 10:06:20;;;;;;;0.70;0.30;;;29.50;47.50;;;;;;4990640;28;20499;-86
2021/06/13 10:08:47;;;;;;;1.10;0.30;;;29.50;47.20;;;;;;4976149;28;20370;-86
2021/06/13 10:11:14;;;;;;;0.50;0.30;;;29.50;47.00;;;;;;4974550;28;20031;-87
2021/06/13 10:13:47;;;;;;;0.73;0.22;;;29.50;46.90;;;;;;4974943;28;20042;-87
2021/06/13 10:16:30;;;;;;;0.22;0.00;;;29.60;46.50;;;;;;4983991;28;20027;-87
2021/06/13 10:19:19;;;;;;;0.73;0.25;;;29.60;46.20;;;;;;4981157;28;20027;-86
2021/06/13 10:21:46;;;;;;;0.13;0.00;;;29.60;45.80;;;;;;4959772;28;20066;-87
2021/06/13 10:24:14;;;;;;;0.55;0.22;;;29.60;45.60;;;;;;4984179;28;20023;-86
2021/06/13 10:26:43;;;;;;;0.73;0.08;;;29.60;45.60;;;;;;4977622;28;20038;-87
2021/06/13 10:29:09;;;;;;;0.88;0.10;;;29.60;45.40;;;;;;4975188;28;20027;-86
2021/06/13 10:31:36;;;;;;;2.38;0.10;;;29.70;45.30;;;;;;4995069;28;20397;-85
2021/06/13 10:34:02;;;;;;;0.30;0.10;;;29.80;45.00;;;;;;4974551;28;20035;-87
2021/06/13 10:36:31;;;;;;;1.83;0.38;;;29.70;45.00;;;;;;4974333;28;20673;-87
2021/06/13 10:38:57;;;;;;;0.30;0.10;;;29.70;44.80;;;;;;4974101;28;20027;-86
2021/06/13 10:41:24;;;;;;;0.40;0.10;;;29.80;44.80;;;;;;4974298;28;20022;-87
2021/06/13 10:43:50;;;;;;;0.00;0.00;;;30.00;44.80;;;;;;4974379;28;20491;-86
2021/06/13 10:46:19;;;;;;;0.17;0.00;;;30.10;43.80;;;;;;4973713;28;20050;-87
2021/06/13 10:48:49;;;;;;;0.65;0.10;;;30.10;43.80;;;;;;4974161;28;20039;-87
2021/06/13 10:51:37;;;;;;;0.77;0.35;;;30.10;43.60;;;;;;4958386;28;20511;-87
2021/06/13 10:54:27;;;;;;;0.30;0.00;;;30.00;43.70;;;;;;4973804;28;20034;-85
2021/06/13 10:57:00;;;;;;;0.68;0.20;;;30.10;43.60;;;;;;4973982;28;20031;-85
2021/06/13 10:59:31;;;;;;;0.70;0.20;;;30.10;43.30;;;;;;4975173;28;20040;-87
2021/06/13 11:02:09;;;;;;;0.52;0.20;;;30.20;43.20;;;;;;4986988;28;20054;-84
2021/06/13 11:04:44;;;;;;;0.00;0.00;;;30.40;42.90;;;;;;4992684;28;20042;-86
2021/06/13 11:07:46;;;;;;;0.98;0.17;;;30.40;42.10;;;;;;4979271;28;20026;-87
2021/06/13 11:10:16;;;;;;;0.32;0.30;;;30.30;42.30;;;;;;4979121;28;20041;-85
2021/06/13 11:13:00;;;;;;;0.28;0.10;;;30.30;42.40;;;;;;4961306;28;20045;-87
2021/06/13 11:15:35;;;;;;;0.10;0.00;;;30.40;42.30;;;;;;4977355;28;20062;-87
2021/06/13 11:18:17;;;;;;;0.40;0.10;;;30.40;42.00;;;;;;4974881;28;20025;-85
2021/06/13 11:23:22;;;;;;;0.40;0.05;;;30.40;41.40;;;;;;4973545;28;20038;-87
2021/06/13 11:25:49;;;;;;;0.20;0.03;;;30.50;41.30;;;;;;4971504;28;20372;-87
2021/06/13 11:28:19;;;;;;;0.65;0.20;;;30.60;41.10;;;;;;4989373;28;20069;-87
2021/06/13 11:30:50;;;;;;;0.65;0.10;;;30.70;41.00;;;;;;4989196;28;20091;-87
2021/06/13 11:33:35;;;;;;;0.00;0.00;;;30.70;40.70;;;;;;4973054;28;20026;-87
2021/06/13 11:36:02;;;;;;;0.57;0.10;;;30.80;40.50;;;;;;4973036;28;20039;-86
2021/06/13 11:38:29;;;;;;;0.05;0.00;;;30.70;40.30;;;;;;4957315;28;20041;-86
2021/06/13 11:41:00;;;;;;;0.38;0.20;;;30.70;40.30;;;;;;4973278;28;20495;-86
2021/06/13 11:43:32;;;;;;;;;;;30.70;40.20;;;;;;4990169;28;20038;-87
2021/06/13 11:46:00;;;;;;;0.63;0.20;;;30.80;39.90;;;;;;4981235;28;19921;-87
2021/06/13 11:48:30;;;;;;;0.10;0.00;;;30.80;39.70;;;;;;4983274;28;20031;-86
2021/06/13 11:51:05;;;;;;;0.22;0.00;;;30.80;39.60;;;;;;4978478;28;20419;-87
2021/06/13 11:53:56;;;;;;;0.65;0.10;;;30.70;39.50;;;;;;4958341;28;20033;-85
2021/06/13 11:56:39;;;;;;;0.10;0.00;;;30.70;39.60;;;;;;4959182;28;20026;-84
2021/06/13 11:59:19;;;;;;;0.20;0.10;;;30.70;39.20;;;;;;4975304;28;20034;-86
2021/06/13 12:01:56;;;;;;;0.20;0.00;;;30.60;38.90;;;;;;4999428;28;20035;-84
2021/06/13 12:04:23;;;;;;;0.43;0.00;;;30.60;38.80;;;;;;4976852;28;20038;-86
2021/06/13 12:06:49;;;;;;;0.45;0.00;;;30.60;38.70;;;;;;4976836;28;20484;-86
2021/06/13 12:09:16;;;;;;;0.80;0.20;;;30.70;38.80;;;;;;4976986;28;20043;-87
2021/06/13 12:11:45;;;;;;;0.82;0.10;;;30.60;38.80;;;;;;4975550;28;20014;-87
2021/06/13 12:14:29;;;;;;;2.28;0.10;;;30.70;38.80;;;;;;4974049;28;20026;-86
2021/06/13 12:16:57;;;;;;;0.82;0.30;;;30.70;38.70;;;;;;4986470;28;20042;-88
2021/06/13 12:19:25;;;;;;;0.30;0.10;;;30.80;38.50;;;;;;4993324;28;20027;-87
2021/06/13 12:21:51;;;;;;;0.40;0.20;;;30.80;38.20;;;;;;4992317;28;20035;-87
2021/06/13 12:29:39;;;;;;;7.28;0.20;;;31.20;38.10;;;;;;4976146;28;20049;-87
2021/06/13 12:32:12;;;;;;;1.38;0.22;;;31.20;38.10;;;;;;4973165;28;20039;-87
2021/06/13 12:34:39;;;;;;;0.00;0.00;;;31.30;37.90;;;;;;4988997;28;20039;-87
2021/06/13 12:37:06;;;;;;;0.20;0.00;;;31.30;37.90;;;;;;4971972;28;20046;-86
2021/06/13 12:39:32;;;;;;;0.45;0.00;;;31.20;37.90;;;;;;4988500;28;20488;-84
2021/06/13 12:42:09;;;;;;;0.10;0.00;;;31.10;37.90;;;;;;4972076;28;20030;-87
2021/06/13 12:44:36;;;;;;;0.10;0.00;;;31.10;38.10;;;;;;4972264;28;20039;-87
2021/06/13 12:47:04;;;;;;;0.22;0.10;;;31.30;38.10;;;;;;4985460;28;20054;-86
2021/06/13 12:49:40;;;;;;;0.43;0.20;;;31.40;38.10;;;;;;4992752;28;20035;-85
2021/06/13 12:52:14;;;;;;;0.25;0.10;;;31.50;37.80;;;;;;5008710;28;20046;-88
2021/06/13 12:54:41;;;;;;;0.05;0.00;;;31.50;37.80;;;;;;5008777;28;20057;-86
2021/06/13 12:57:07;;;;;;;0.30;0.20;;;31.60;37.80;;;;;;5008854;28;20023;-88
2021/06/13 12:59:37;;;;;;;0.52;0.15;;;31.60;37.80;;;;;;4975320;28;20030;-84
2021/06/13 13:02:06;;;;;;;0.10;0.00;;;31.60;37.60;;;;;;4973148;28;20042;-86
2021/06/13 13:04:47;;;;;;;1.20;0.10;;;31.40;37.60;;;;;;4972064;28;20038;-87